createdAt,value
2022-08-17T00:02:25.283Z,13.27
2022-08-17T00:04:54.937Z,13.03
2022-08-17T00:07:22.183Z,12.20
2022-08-17T00:09:49.029Z,12.40
2022-08-17T00:12:40.631Z,13.50
2022-08-17T00:15:05.071Z,11.23
2022-08-17T00:17:31.924Z,12.30
2022-08-17T00:19:59.974Z,13.20
2022-08-17T00:22:33.253Z,12.87
2022-08-17T00:25:10.490Z,13.03
2022-08-17T00:27:37.328Z,13.77
2022-08-17T00:30:09.604Z,13.50
2022-08-17T00:33:14.307Z,14.03
2022-08-17T00:35:34.715Z,13.23
2022-08-17T00:38:01.686Z,14.00
2022-08-17T00:40:44.237Z,12.93
2022-08-17T00:43:22.737Z,13.37
2022-08-17T00:45:50.035Z,13.53
2022-08-17T00:48:26.177Z,13.70
2022-08-17T00:51:09.126Z,13.73
2022-08-17T00:53:40.613Z,12.47
2022-08-17T00:56:10.752Z,14.17
2022-08-17T00:58:38.663Z,14.03
2022-08-17T01:01:08.005Z,13.10
2022-08-17T01:03:37.451Z,12.20
2022-08-17T01:06:06.239Z,13.43
2022-08-17T01:08:33.559Z,14.50
2022-08-17T01:11:02.330Z,13.87
2022-08-17T01:13:40.714Z,13.93
2022-08-17T01:16:19.636Z,14.17
2022-08-17T01:18:50.507Z,13.63
2022-08-17T01:21:29.046Z,14.20
2022-08-17T01:23:56.457Z,12.73
2022-08-17T01:26:23.785Z,14.07
2022-08-17T01:28:54.348Z,13.40
2022-08-17T01:31:24.606Z,13.70
2022-08-17T01:33:51.526Z,13.43
2022-08-17T01:36:18.459Z,15.23
2022-08-17T01:38:45.274Z,13.30
2022-08-17T01:41:15.848Z,13.30
2022-08-17T01:44:00.408Z,13.77
2022-08-17T01:46:31.375Z,13.80
2022-08-17T01:48:59.434Z,12.73
2022-08-17T01:51:30.808Z,13.37
2022-08-17T01:54:00.598Z,14.20
2022-08-17T01:56:30.020Z,13.73
2022-08-17T01:58:57.345Z,13.20
2022-08-17T02:01:27.226Z,14.80
2022-08-17T02:04:00.935Z,15.00
2022-08-17T02:06:44.968Z,14.13
2022-08-17T02:09:16.835Z,14.97
2022-08-17T02:11:44.580Z,13.10
2022-08-17T02:14:13.560Z,14.30
2022-08-17T02:16:41.712Z,13.63
2022-08-17T02:19:13.007Z,13.67
2022-08-17T02:21:41.866Z,14.47
2022-08-17T02:24:13.314Z,14.43
2022-08-17T02:26:40.217Z,15.33
2022-08-17T02:29:07.530Z,15.30
2022-08-17T02:31:35.615Z,14.57
2022-08-17T02:34:05.012Z,13.50
2022-08-17T02:36:34.088Z,14.00
2022-08-17T02:39:06.675Z,13.47
2022-08-17T02:41:33.689Z,13.27
2022-08-17T02:44:01.188Z,15.10
2022-08-17T02:46:28.455Z,14.47
2022-08-17T02:48:55.589Z,14.00
2022-08-17T02:51:22.647Z,13.03
2022-08-17T02:53:49.505Z,13.90
2022-08-17T02:56:16.356Z,13.00
2022-08-17T02:58:43.321Z,13.77
2022-08-17T03:01:10.805Z,12.73
2022-08-17T03:03:40.728Z,13.73
2022-08-17T03:06:08.329Z,13.53
2022-08-17T03:08:36.428Z,14.23
2022-08-17T03:11:03.795Z,15.07
2022-08-17T03:13:30.950Z,14.40
2022-08-17T03:15:57.988Z,14.10
2022-08-17T03:18:26.314Z,13.90
2022-08-17T03:20:59.365Z,14.20
2022-08-17T03:23:27.956Z,13.00
2022-08-17T03:25:56.885Z,13.23
2022-08-17T03:28:24.573Z,14.73
2022-08-17T03:30:52.636Z,12.90
2022-08-17T03:33:20.003Z,16.00
2022-08-17T03:35:47.708Z,13.43
2022-08-17T03:38:17.109Z,13.80
2022-08-17T03:40:58.640Z,13.73
2022-08-17T03:43:29.747Z,14.00
2022-08-17T03:46:27.644Z,12.57
2022-08-17T03:49:19.799Z,14.33
2022-08-17T03:52:05.525Z,13.20
2022-08-17T03:54:50.801Z,14.40
2022-08-17T03:57:19.248Z,14.77
2022-08-17T03:59:46.287Z,14.90
2022-08-17T04:02:19.842Z,14.37
2022-08-17T04:04:50.795Z,15.30
2022-08-17T04:07:19.418Z,13.90
2022-08-17T04:09:46.511Z,14.57
2022-08-17T04:12:16.154Z,13.40
2022-08-17T04:14:52.776Z,15.00
2022-08-17T04:17:24.252Z,15.00
2022-08-17T04:19:51.857Z,13.60
2022-08-17T04:22:31.906Z,14.77
2022-08-17T04:25:17.206Z,13.63
2022-08-17T04:27:44.104Z,13.90
2022-08-17T04:30:11.528Z,13.03
2022-08-17T04:33:15.640Z,12.53
2022-08-17T04:35:51.410Z,13.80
2022-08-17T04:38:21.406Z,13.70
2022-08-17T04:41:07.764Z,12.93
2022-08-17T04:43:35.997Z,12.23
2022-08-17T04:46:08.919Z,12.70
2022-08-17T04:48:39.761Z,13.33
2022-08-17T04:51:15.691Z,12.73
2022-08-17T04:53:49.061Z,12.20
2022-08-17T04:56:22.799Z,11.70
2022-08-17T04:58:51.709Z,12.07
2022-08-17T05:01:23.675Z,13.00
2022-08-17T05:03:52.451Z,12.23
2022-08-17T05:06:19.713Z,11.90
2022-08-17T05:08:46.559Z,11.83
2022-08-17T05:11:13.623Z,11.03
2022-08-17T05:13:53.535Z,12.00
2022-08-17T05:16:22.847Z,12.53
2022-08-17T05:18:50.299Z,11.60
2022-08-17T05:21:17.717Z,11.20
2022-08-17T05:23:47.159Z,10.90
2022-08-17T05:26:26.387Z,12.53
2022-08-17T05:29:00.395Z,11.70
2022-08-17T05:31:30.600Z,11.13
2022-08-17T05:33:57.829Z,10.77
2022-08-17T05:36:41.861Z,11.90
2022-08-17T05:39:10.745Z,11.00
2022-08-17T05:41:43.905Z,11.00
2022-08-17T05:44:11.042Z,10.87
2022-08-17T05:46:41.783Z,10.70
2022-08-17T05:49:09.611Z,10.13
2022-08-17T05:51:57.807Z,10.60
2022-08-17T05:55:01.488Z,9.73
2022-08-17T05:57:49.696Z,11.03
2022-08-17T06:00:42.175Z,11.53
2022-08-17T06:03:47.346Z,11.77
2022-08-17T06:06:35.162Z,9.73
2022-08-17T06:09:04.774Z,10.63
2022-08-17T06:11:43.626Z,12.60
2022-08-17T06:14:22.371Z,9.50
2022-08-17T06:16:55.579Z,10.63
2022-08-17T06:19:39.492Z,10.33
2022-08-17T06:22:08.626Z,10.43
2022-08-17T06:24:42.171Z,11.30
2022-08-17T06:27:17.991Z,10.50
2022-08-17T06:29:56.821Z,8.97
2022-08-17T06:32:25.100Z,9.97
2022-08-17T06:34:53.186Z,9.60
2022-08-17T06:37:43.899Z,9.00
2022-08-17T06:40:38.076Z,9.03
2022-08-17T06:43:19.870Z,9.37
2022-08-17T06:46:07.729Z,9.77
2022-08-17T06:48:39.718Z,10.10
2022-08-17T06:51:34.981Z,9.70
2022-08-17T06:54:19.480Z,9.00
2022-08-17T06:56:59.579Z,7.97
2022-08-17T06:59:54.281Z,8.90
2022-08-17T07:02:51.165Z,7.80
2022-08-17T07:05:41.645Z,8.60
2022-08-17T07:08:12.690Z,8.53
2022-08-17T07:10:48.312Z,8.60
2022-08-17T07:13:49.300Z,8.60
2022-08-17T07:16:33.282Z,8.80
2022-08-17T07:19:00.505Z,8.70
2022-08-17T07:21:48.913Z,8.43
2022-08-17T07:24:29.583Z,7.67
2022-08-17T07:27:23.261Z,8.20
2022-08-17T07:30:09.544Z,8.40
2022-08-17T07:32:45.301Z,8.53
2022-08-17T07:35:21.213Z,7.60
2022-08-17T07:37:55.614Z,7.80
2022-08-17T07:41:03.100Z,7.73
2022-08-17T07:43:41.823Z,7.00
2022-08-17T07:46:30.053Z,7.20
2022-08-17T07:49:18.692Z,7.50
2022-08-17T07:51:48.267Z,7.33
2022-08-17T07:54:23.593Z,7.80
2022-08-17T07:57:00.382Z,8.20
2022-08-17T07:59:40.712Z,7.70
2022-08-17T08:02:40.336Z,7.13
2022-08-17T08:05:30.713Z,7.87
2022-08-17T08:08:21.684Z,7.27
2022-08-17T08:11:03.751Z,7.80
2022-08-17T08:13:32.335Z,6.67
2022-08-17T08:16:19.838Z,6.70
2022-08-17T08:18:55.704Z,7.53
2022-08-17T08:21:48.729Z,7.40
2022-08-17T08:24:52.113Z,7.30
2022-08-17T08:27:30.821Z,7.10
2022-08-17T08:30:04.949Z,7.60
2022-08-17T08:32:58.433Z,7.23
2022-08-17T08:35:30.984Z,6.80
2022-08-17T08:38:23.741Z,7.20
2022-08-17T08:41:20.433Z,6.60
2022-08-17T08:44:08.508Z,5.80
2022-08-17T08:47:04.431Z,6.37
2022-08-17T08:50:04.095Z,6.67
2022-08-17T08:53:18.975Z,6.07
2022-08-17T08:55:52.308Z,6.30
2022-08-17T08:58:52.456Z,6.53
2022-08-17T09:01:39.374Z,6.53
2022-08-17T09:04:24.766Z,6.63
2022-08-17T09:07:17.287Z,6.43
2022-08-17T09:10:32.153Z,6.60
2022-08-17T09:13:15.733Z,6.77
2022-08-17T09:15:48.013Z,8.70
2022-08-17T09:19:01.293Z,7.60
2022-08-17T09:21:48.759Z,7.60
2022-08-17T09:25:03.411Z,7.47
2022-08-17T09:27:53.722Z,6.60
2022-08-17T09:30:20.748Z,6.53
2022-08-17T09:32:56.445Z,7.90
2022-08-17T09:35:36.452Z,7.33
2022-08-17T09:41:23.893Z,6.60
2022-08-17T09:44:22.746Z,6.93
2022-08-17T09:47:14.934Z,7.27
2022-08-17T09:49:52.223Z,6.60
2022-08-17T09:52:23.272Z,5.90
2022-08-17T09:54:52.398Z,7.50
2022-08-17T09:57:38.024Z,6.97
2022-08-17T10:00:10.600Z,7.27
2022-08-17T10:03:09.957Z,6.90
2022-08-17T10:05:37.726Z,6.50
2022-08-17T10:08:35.130Z,7.47
2022-08-17T10:11:10.907Z,7.73
2022-08-17T10:13:53.769Z,6.43
2022-08-17T10:16:43.910Z,6.80
2022-08-17T10:19:36.092Z,6.37
2022-08-17T10:22:38.145Z,6.80
2022-08-17T10:25:42.532Z,6.00
2022-08-17T10:28:21.487Z,6.50
2022-08-17T10:31:16.578Z,7.17
2022-08-17T10:34:23.620Z,7.20
2022-08-17T10:37:02.597Z,6.17
2022-08-17T10:39:57.395Z,6.80
2022-08-17T10:42:43.706Z,6.87
2022-08-17T10:45:29.529Z,6.60
2022-08-17T10:48:05.695Z,7.27
2022-08-17T10:50:53.666Z,6.27
2022-08-17T10:53:43.609Z,6.70
2022-08-17T10:56:13.411Z,6.30
2022-08-17T10:58:59.909Z,6.47
2022-08-17T11:01:32.262Z,6.63
2022-08-17T11:04:11.253Z,7.50
2022-08-17T11:06:38.022Z,6.43
2022-08-17T11:09:56.283Z,5.77
2022-08-17T11:12:42.362Z,6.50
2022-08-17T11:15:36.330Z,6.47
2022-08-17T11:18:12.490Z,5.77
2022-08-17T11:20:52.024Z,6.63
2022-08-17T11:23:48.526Z,6.07
2022-08-17T11:26:29.713Z,6.40
2022-08-17T11:29:02.200Z,6.20
2022-08-17T11:31:44.687Z,6.43
2022-08-17T11:34:21.436Z,6.23
2022-08-17T11:37:02.130Z,6.83
2022-08-17T11:40:10.645Z,6.30
2022-08-17T11:42:49.104Z,6.70
2022-08-17T11:45:50.941Z,7.43
2022-08-17T11:48:55.375Z,6.70
2022-08-17T11:51:33.826Z,6.10
2022-08-17T11:54:34.733Z,6.57
2022-08-17T11:57:29.524Z,6.30
2022-08-17T12:00:11.348Z,6.30
2022-08-17T12:02:48.145Z,5.57
2022-08-17T12:05:16.961Z,6.53
2022-08-17T12:08:04.682Z,6.43
2022-08-17T12:10:35.518Z,6.60
2022-08-17T12:13:21.653Z,6.30
2022-08-17T12:15:52.801Z,5.87
2022-08-17T12:18:31.600Z,5.63
2022-08-17T12:21:13.451Z,6.17
2022-08-17T12:23:55.054Z,6.17
2022-08-17T12:26:30.446Z,6.27
2022-08-17T12:29:04.140Z,4.80
2022-08-17T12:31:36.847Z,6.70
2022-08-17T12:34:05.558Z,6.10
2022-08-17T12:36:33.660Z,5.57
2022-08-17T12:39:13.848Z,6.57
2022-08-17T12:41:45.045Z,5.77
2022-08-17T12:44:12.280Z,5.90
2022-08-17T12:47:04.709Z,5.77
2022-08-17T12:49:34.307Z,6.67
2022-08-17T12:52:15.143Z,5.67
2022-08-17T12:54:42.108Z,5.87
2022-08-17T12:57:29.272Z,6.10
2022-08-17T13:00:02.857Z,6.10
2022-08-17T13:02:39.812Z,5.97
2022-08-17T13:05:17.354Z,5.87
2022-08-17T13:07:46.604Z,5.90
2022-08-17T13:10:33.082Z,5.53
2022-08-17T13:13:06.073Z,6.30
2022-08-17T13:15:44.744Z,6.70
2022-08-17T13:18:38.891Z,6.30
2022-08-17T13:21:11.456Z,6.57
2022-08-17T13:23:38.338Z,6.33
2022-08-17T13:26:07.105Z,6.87
2022-08-17T13:28:36.840Z,6.00
2022-08-17T13:31:24.205Z,6.33
2022-08-17T13:33:51.058Z,5.60
2022-08-17T13:36:32.104Z,6.17
2022-08-17T13:39:13.001Z,6.40
2022-08-17T13:41:39.992Z,6.20
2022-08-17T13:44:29.589Z,5.87
2022-08-17T13:46:57.421Z,6.93
2022-08-17T13:49:24.417Z,6.47
2022-08-17T13:52:14.084Z,4.83
2022-08-17T13:54:50.971Z,5.90
2022-08-17T13:57:23.653Z,5.80
2022-08-17T13:59:55.919Z,5.80
2022-08-17T14:02:28.611Z,6.17
2022-08-17T14:04:57.854Z,5.67
2022-08-17T14:07:33.825Z,5.97
2022-08-17T14:10:17.513Z,6.37
2022-08-17T14:12:46.150Z,5.77
2022-08-17T14:15:15.388Z,6.80
2022-08-17T14:17:42.537Z,5.73
2022-08-17T14:20:12.231Z,6.23
2022-08-17T14:22:43.411Z,6.50
2022-08-17T14:25:12.766Z,6.07
2022-08-17T14:27:43.259Z,5.87
2022-08-17T14:30:25.627Z,6.00
2022-08-17T14:32:54.627Z,5.60
2022-08-17T14:35:23.925Z,5.53
2022-08-17T14:37:51.980Z,5.87
2022-08-17T14:40:20.861Z,6.93
2022-08-17T14:42:48.175Z,5.17
2022-08-17T14:45:31.640Z,5.20
2022-08-17T14:48:04.165Z,5.63
2022-08-17T14:50:31.710Z,6.10
2022-08-17T14:52:59.253Z,6.40
2022-08-17T14:55:29.202Z,6.40
2022-08-17T14:57:56.028Z,5.43
2022-08-17T15:00:23.036Z,6.20
2022-08-17T15:02:55.806Z,6.20
2022-08-17T15:05:25.949Z,5.90
2022-08-17T15:07:53.707Z,6.57
2022-08-17T15:10:21.636Z,5.73
2022-08-17T15:12:49.082Z,6.20
2022-08-17T15:15:17.519Z,6.37
2022-08-17T15:17:54.640Z,6.67
2022-08-17T15:20:24.763Z,6.53
2022-08-17T15:22:55.650Z,5.77
2022-08-17T15:25:24.427Z,6.77
2022-08-17T15:27:51.811Z,6.50
2022-08-17T15:30:19.841Z,6.60
2022-08-17T15:32:53.935Z,6.00
2022-08-17T15:35:29.135Z,6.00
2022-08-17T15:38:06.153Z,6.20
2022-08-17T15:40:37.021Z,7.20
2022-08-17T15:43:15.682Z,5.70
2022-08-17T15:45:43.083Z,6.30
2022-08-17T15:48:10.057Z,5.53
2022-08-17T15:50:37.446Z,6.63
2022-08-17T15:53:04.950Z,5.73
2022-08-17T15:55:33.278Z,5.93
2022-08-17T15:58:00.512Z,6.30
2022-08-17T16:00:29.271Z,6.20
2022-08-17T16:03:45.452Z,6.10
2022-08-17T16:05:47.325Z,5.97
2022-08-17T16:08:20.203Z,6.40
2022-08-17T16:10:48.882Z,6.53
2022-08-17T16:13:17.890Z,19.00
2022-08-17T16:15:49.747Z,93.43
2022-08-17T16:18:31.079Z,53.20
2022-08-17T16:21:23.788Z,21.20
2022-08-17T16:24:02.859Z,8.07
2022-08-17T16:26:31.322Z,27.37
2022-08-17T16:29:00.311Z,117.80
2022-08-17T16:31:27.448Z,100.97
2022-08-17T16:34:16.163Z,56.90
2022-08-17T16:36:41.726Z,16.33
2022-08-17T16:39:21.618Z,14.67
2022-08-17T16:41:48.592Z,24.10
2022-08-17T16:44:17.120Z,9.90
2022-08-17T16:46:45.967Z,23.73
2022-08-17T16:49:35.772Z,8.17
2022-08-17T16:52:03.004Z,10.03
2022-08-17T16:54:29.976Z,8.67
2022-08-17T16:56:56.869Z,8.67
2022-08-17T16:59:31.180Z,9.00
2022-08-17T17:02:12.845Z,8.27
2022-08-17T17:05:09.169Z,7.87
2022-08-17T17:07:51.149Z,8.87
2022-08-17T17:10:22.581Z,8.37
2022-08-17T17:13:02.870Z,7.47
2022-08-17T17:15:45.239Z,8.53
2022-08-17T17:18:14.786Z,8.10
2022-08-17T17:20:56.960Z,8.30
2022-08-17T17:23:44.989Z,8.90
2022-08-17T17:26:20.636Z,8.07
2022-08-17T17:29:08.036Z,8.23
2022-08-17T17:31:48.086Z,8.03
2022-08-17T17:34:16.583Z,9.60
2022-08-17T17:36:51.945Z,8.50
2022-08-17T17:39:41.611Z,10.27
2022-08-17T17:42:20.093Z,8.40
2022-08-17T17:44:59.710Z,8.50
2022-08-17T17:47:27.434Z,9.00
2022-08-17T17:49:54.252Z,9.37
2022-08-17T17:52:38.466Z,10.50
2022-08-17T17:55:31.634Z,8.67
2022-08-17T17:58:36.115Z,9.33
2022-08-17T18:01:37.183Z,9.03
2022-08-17T18:04:20.865Z,9.70
2022-08-17T18:07:06.143Z,9.67
2022-08-17T18:10:00.918Z,9.60
2022-08-17T18:12:44.796Z,9.13
2022-08-17T18:15:29.566Z,9.90
2022-08-17T18:18:13.578Z,8.30
2022-08-17T18:20:53.156Z,9.33
2022-08-17T18:23:27.695Z,9.57
2022-08-17T18:25:56.675Z,9.93
2022-08-17T18:28:36.540Z,10.30
2022-08-17T18:31:17.053Z,10.57
2022-08-17T18:33:46.840Z,10.13
2022-08-17T18:36:30.598Z,10.13
2022-08-17T18:39:25.758Z,10.07
2022-08-17T18:41:56.536Z,10.40
2022-08-17T18:44:26.392Z,11.23
2022-08-17T18:47:14.690Z,9.80
2022-08-17T18:49:45.086Z,10.03
2022-08-17T18:52:21.587Z,11.33
2022-08-17T18:55:24.086Z,9.90
2022-08-17T18:57:53.544Z,9.30
2022-08-17T19:00:35.931Z,9.50
2022-08-17T19:03:20.197Z,9.87
2022-08-17T19:05:51.090Z,10.83
2022-08-17T19:08:30.312Z,11.43
2022-08-17T19:11:05.942Z,10.47
2022-08-17T19:13:54.817Z,10.27
2022-08-17T19:16:27.624Z,9.37
2022-08-17T19:19:19.690Z,10.33
2022-08-17T19:21:59.047Z,10.93
2022-08-17T19:24:30.050Z,10.93
2022-08-17T19:27:11.375Z,11.70
2022-08-17T19:29:54.957Z,12.50
2022-08-17T19:32:26.337Z,11.07
2022-08-17T19:34:54.507Z,11.10
2022-08-17T19:37:24.343Z,11.50
2022-08-17T19:39:55.701Z,10.50
2022-08-17T19:42:59.197Z,11.27
2022-08-17T19:45:51.414Z,11.40
2022-08-17T19:48:50.621Z,11.23
2022-08-17T19:51:45.223Z,11.10
2022-08-17T19:54:38.117Z,11.30
2022-08-17T19:57:58.729Z,10.40
2022-08-17T20:00:25.758Z,12.27
2022-08-17T20:03:06.230Z,12.73
2022-08-17T20:06:12.163Z,11.10
2022-08-17T20:09:03.690Z,13.40
2022-08-17T20:11:31.268Z,11.23
2022-08-17T20:14:09.832Z,11.63
2022-08-17T20:16:36.720Z,13.53
2022-08-17T20:19:16.785Z,12.63
2022-08-17T20:21:53.296Z,12.60
2022-08-17T20:24:46.120Z,13.57
2022-08-17T20:27:18.625Z,11.97
2022-08-17T20:30:09.807Z,12.13
2022-08-17T20:33:03.183Z,12.87
2022-08-17T20:35:39.973Z,12.67
2022-08-17T20:38:25.138Z,12.57
2022-08-17T20:40:54.976Z,12.13
2022-08-17T20:43:35.668Z,13.00
2022-08-17T20:46:21.289Z,13.93
2022-08-17T20:48:54.559Z,12.60
2022-08-17T20:52:01.245Z,12.70
2022-08-17T20:54:42.167Z,13.00
2022-08-17T20:57:30.007Z,13.00
2022-08-17T21:00:19.381Z,12.60
2022-08-17T21:02:49.733Z,12.73
2022-08-17T21:05:29.990Z,14.30
2022-08-17T21:08:00.974Z,13.53
2022-08-17T21:10:30.221Z,13.07
2022-08-17T21:13:13.467Z,13.53
2022-08-17T21:15:42.221Z,13.20
2022-08-17T21:18:16.549Z,13.77
2022-08-17T21:21:02.144Z,13.10
2022-08-17T21:23:58.673Z,13.50
2022-08-17T21:26:55.537Z,12.73
2022-08-17T21:29:32.531Z,13.13
2022-08-17T21:32:03.870Z,12.40
2022-08-17T21:34:38.036Z,14.30
2022-08-17T21:37:20.422Z,13.30
2022-08-17T21:39:53.735Z,13.43
2022-08-17T21:42:34.046Z,13.17
2022-08-17T21:45:10.384Z,14.30
2022-08-17T21:47:41.035Z,12.20
2022-08-17T21:50:25.148Z,13.73
2022-08-17T21:52:54.190Z,13.60
2022-08-17T21:55:29.689Z,13.20
2022-08-17T21:58:13.907Z,13.53
2022-08-17T22:00:44.719Z,13.47
2022-08-17T22:03:26.072Z,15.33
2022-08-17T22:05:53.090Z,14.10
2022-08-17T22:08:24.142Z,14.20
2022-08-17T22:11:01.380Z,14.30
2022-08-17T22:13:29.780Z,13.80
2022-08-17T22:16:28.041Z,13.97
2022-08-17T22:18:58.217Z,14.13
2022-08-17T22:21:26.302Z,13.90
2022-08-17T22:24:06.090Z,14.90
2022-08-17T22:26:59.816Z,14.97
2022-08-17T22:29:57.180Z,15.00
2022-08-17T22:32:31.343Z,14.37
2022-08-17T22:35:18.451Z,13.67
2022-08-17T22:37:45.747Z,15.50
2022-08-17T22:40:30.541Z,15.70
2022-08-17T22:42:59.261Z,15.57
2022-08-17T22:45:29.851Z,15.67
2022-08-17T22:47:58.802Z,15.47
2022-08-17T22:50:31.693Z,15.53
2022-08-17T22:53:20.638Z,15.33
2022-08-17T22:56:14.713Z,14.87
2022-08-17T22:59:18.410Z,16.13
2022-08-17T23:02:05.180Z,16.53
2022-08-17T23:04:37.984Z,18.17
2022-08-17T23:07:06.710Z,16.13
2022-08-17T23:09:34.130Z,18.70
2022-08-17T23:12:00.974Z,17.47
2022-08-17T23:14:31.709Z,17.23
2022-08-17T23:16:59.593Z,17.13
2022-08-17T23:19:27.710Z,16.50
2022-08-17T23:21:56.338Z,15.50
2022-08-17T23:24:26.188Z,16.90
2022-08-17T23:26:54.011Z,18.20
2022-08-17T23:29:21.624Z,18.43
2022-08-17T23:31:51.088Z,17.10
2022-08-17T23:34:19.029Z,18.10
2022-08-17T23:36:51.250Z,17.90
2022-08-17T23:39:27.714Z,16.43
2022-08-17T23:41:57.342Z,17.00
2022-08-17T23:44:24.620Z,16.47
2022-08-17T23:46:52.948Z,16.40
2022-08-17T23:49:20.195Z,14.67
2022-08-17T23:51:48.559Z,15.73
2022-08-17T23:54:21.523Z,15.27
2022-08-17T23:56:48.462Z,16.63
2022-08-17T23:59:17.134Z,18.03
